createdAt,value
2023-04-27T00:00:55.950Z,83.63
2023-04-27T00:01:55.982Z,83.73
2023-04-27T00:02:56.041Z,83.73
2023-04-27T00:03:56.058Z,83.32
2023-04-27T00:04:56.244Z,83.12
2023-04-27T00:05:56.231Z,83.32
2023-04-27T00:06:55.881Z,83.42
2023-04-27T00:07:55.874Z,82.81
2023-04-27T00:08:55.832Z,82.70
2023-04-27T00:09:55.842Z,82.19
2023-04-27T00:10:55.835Z,82.19
2023-04-27T00:11:55.806Z,82.19
2023-04-27T00:12:55.776Z,81.99
2023-04-27T00:13:55.780Z,81.57
2023-04-27T00:14:55.779Z,81.06
2023-04-27T00:15:55.838Z,80.79
2023-04-27T00:16:55.736Z,81.51
2023-04-27T00:17:55.835Z,81.62
2023-04-27T00:18:55.731Z,81.82
2023-04-27T00:19:55.720Z,81.92
2023-04-27T00:20:55.690Z,82.43
2023-04-27T00:21:55.720Z,82.54
2023-04-27T00:22:55.652Z,82.68
2023-04-27T00:23:55.695Z,82.89
2023-04-27T00:24:55.657Z,82.89
2023-04-27T00:25:55.639Z,83.19
2023-04-27T00:26:55.640Z,83.09
2023-04-27T00:27:55.637Z,83.09
2023-04-27T00:28:55.580Z,82.78
2023-04-27T00:29:55.599Z,82.89
2023-04-27T00:30:55.544Z,82.89
2023-04-27T00:31:55.609Z,83.19
2023-04-27T00:32:55.612Z,83.75
2023-04-27T00:33:55.534Z,84.16
2023-04-27T00:34:55.509Z,84.26
2023-04-27T00:35:55.501Z,84.47
2023-04-27T00:36:55.466Z,84.36
2023-04-27T00:37:55.465Z,84.26
2023-04-27T00:38:55.484Z,84.36
2023-04-27T00:39:55.503Z,84.16
2023-04-27T00:40:55.423Z,83.95
2023-04-27T00:41:55.443Z,83.95
2023-04-27T00:42:55.395Z,83.85
2023-04-27T00:43:55.433Z,83.64
2023-04-27T00:44:55.363Z,83.44
2023-04-27T00:45:55.437Z,83.44
2023-04-27T00:46:55.344Z,83.85
2023-04-27T00:47:55.384Z,84.05
2023-04-27T00:48:55.344Z,83.95
2023-04-27T00:49:55.346Z,84.16
2023-04-27T00:50:55.286Z,84.26
2023-04-27T00:51:55.305Z,84.50
2023-04-27T00:52:55.277Z,84.40
2023-04-27T00:53:55.234Z,84.50
2023-04-27T00:54:55.283Z,84.61
2023-04-27T00:55:55.219Z,84.61
2023-04-27T00:56:55.260Z,84.61
2023-04-27T00:57:55.194Z,84.61
2023-04-27T00:58:55.242Z,84.61
2023-04-27T00:59:55.173Z,84.71
2023-04-27T01:00:55.286Z,84.50
2023-04-27T01:01:55.180Z,84.50
2023-04-27T01:02:55.318Z,84.50
2023-04-27T01:03:55.270Z,84.30
2023-04-27T01:04:55.118Z,84.20
2023-04-27T01:05:55.086Z,84.20
2023-04-27T01:06:55.123Z,84.30
2023-04-27T01:07:55.063Z,84.40
2023-04-27T01:08:55.059Z,84.40
2023-04-27T01:09:55.046Z,84.30
2023-04-27T01:10:55.034Z,83.78
2023-04-27T01:11:55.032Z,83.37
2023-04-27T01:12:55.020Z,82.96
2023-04-27T01:13:54.998Z,83.06
2023-04-27T01:14:54.994Z,83.06
2023-04-27T01:15:54.956Z,83.48
2023-04-27T01:16:55.027Z,83.78
2023-04-27T01:17:55.061Z,83.99
2023-04-27T01:18:54.934Z,84.09
2023-04-27T01:19:54.901Z,84.09
2023-04-27T01:20:54.940Z,84.40
2023-04-27T01:21:54.902Z,83.89
2023-04-27T01:22:54.915Z,82.39
2023-04-27T01:23:54.917Z,82.28
2023-04-27T01:24:54.866Z,83.51
2023-04-27T01:25:54.905Z,84.03
2023-04-27T01:26:54.845Z,83.99
2023-04-27T01:27:54.834Z,83.99
2023-04-27T01:28:54.804Z,83.68
2023-04-27T01:29:54.780Z,83.48
2023-04-27T01:30:54.806Z,83.17
2023-04-27T01:31:54.757Z,83.48
2023-04-27T01:32:54.819Z,83.27
2023-04-27T01:33:54.726Z,82.65
2023-04-27T01:34:54.743Z,82.96
2023-04-27T01:35:54.701Z,83.27
2023-04-27T01:36:54.697Z,82.76
2023-04-27T01:37:54.673Z,82.59
2023-04-27T01:38:54.708Z,83.20
2023-04-27T01:39:54.658Z,83.83
2023-04-27T01:40:54.648Z,83.62
2023-04-27T01:41:56.597Z,83.72
2023-04-27T01:42:54.683Z,83.76
2023-04-27T01:43:54.621Z,83.55
2023-04-27T01:44:54.617Z,83.55
2023-04-27T01:45:54.689Z,84.17
2023-04-27T01:46:54.568Z,83.86
2023-04-27T01:47:54.562Z,83.83
2023-04-27T01:48:54.574Z,83.92
2023-04-27T01:49:54.510Z,84.03
2023-04-27T01:50:54.533Z,84.03
2023-04-27T01:51:54.484Z,83.92
2023-04-27T01:52:54.504Z,84.23
2023-04-27T01:53:54.497Z,84.23
2023-04-27T01:54:54.470Z,84.23
2023-04-27T01:55:54.432Z,83.92
2023-04-27T01:56:54.455Z,83.83
2023-04-27T01:57:54.416Z,83.83
2023-04-27T01:58:54.444Z,83.83
2023-04-27T01:59:54.397Z,83.92
2023-04-27T02:00:54.401Z,83.92
2023-04-27T02:01:54.385Z,83.62
2023-04-27T02:02:54.523Z,83.41
2023-04-27T02:03:54.575Z,84.03
2023-04-27T02:04:54.496Z,84.34
2023-04-27T02:05:54.307Z,84.64
2023-04-27T02:06:54.318Z,84.44
2023-04-27T02:07:54.275Z,84.38
2023-04-27T02:08:54.307Z,84.17
2023-04-27T02:09:54.319Z,84.03
2023-04-27T02:10:54.289Z,84.23
2023-04-27T02:11:54.254Z,84.34
2023-04-27T02:12:54.238Z,84.34
2023-04-27T02:13:54.213Z,84.27
2023-04-27T02:14:54.230Z,83.86
2023-04-27T02:15:54.254Z,84.58
2023-04-27T02:16:54.180Z,84.17
2023-04-27T02:17:54.190Z,84.27
2023-04-27T02:18:54.177Z,85.30
2023-04-27T02:19:54.160Z,85.82
2023-04-27T02:20:54.161Z,85.82
2023-04-27T02:21:54.095Z,85.41
2023-04-27T02:22:54.105Z,84.58
2023-04-27T02:23:54.064Z,83.92
2023-04-27T02:24:54.103Z,83.83
2023-04-27T02:25:54.091Z,83.83
2023-04-27T02:26:54.115Z,83.72
2023-04-27T02:27:54.026Z,83.72
2023-04-27T02:28:54.072Z,83.83
2023-04-27T02:29:54.017Z,83.83
2023-04-27T02:30:54.032Z,83.62
2023-04-27T02:31:54.084Z,83.41
2023-04-27T02:32:53.995Z,83.20
2023-04-27T02:33:53.956Z,83.20
2023-04-27T02:34:53.975Z,83.51
2023-04-27T02:35:53.941Z,83.62
2023-04-27T02:36:53.930Z,83.62
2023-04-27T02:37:53.897Z,83.72
2023-04-27T02:38:53.933Z,83.62
2023-04-27T02:39:53.869Z,83.51
2023-04-27T02:40:53.881Z,83.41
2023-04-27T02:41:53.856Z,83.20
2023-04-27T02:42:53.882Z,83.20
2023-04-27T02:43:53.813Z,83.31
2023-04-27T02:44:53.836Z,83.31
2023-04-27T02:45:53.800Z,83.83
2023-04-27T02:46:53.831Z,83.45
2023-04-27T02:47:53.801Z,83.86
2023-04-27T02:48:53.804Z,83.65
2023-04-27T02:49:53.766Z,83.86
2023-04-27T02:50:53.775Z,83.25
2023-04-27T02:51:53.748Z,82.73
2023-04-27T02:52:53.721Z,83.04
2023-04-27T02:53:53.684Z,84.42
2023-04-27T02:54:53.719Z,84.62
2023-04-27T02:55:53.692Z,84.72
2023-04-27T02:56:53.659Z,85.55
2023-04-27T02:57:53.631Z,85.86
2023-04-27T02:58:53.631Z,85.96
2023-04-27T02:59:53.633Z,85.55
2023-04-27T03:00:53.669Z,85.34
2023-04-27T03:01:53.572Z,84.83
2023-04-27T03:02:53.656Z,84.79
2023-04-27T03:03:53.773Z,84.38
2023-04-27T03:04:53.616Z,83.97
2023-04-27T03:05:53.534Z,83.59
2023-04-27T03:06:53.530Z,83.59
2023-04-27T03:07:53.523Z,84.42
2023-04-27T03:08:53.536Z,85.03
2023-04-27T03:09:53.467Z,85.14
2023-04-27T03:10:53.478Z,85.14
2023-04-27T03:11:53.485Z,85.14
2023-04-27T03:12:53.484Z,84.93
2023-04-27T03:13:53.430Z,84.31
2023-04-27T03:14:53.444Z,84.21
2023-04-27T03:15:53.400Z,84.83
2023-04-27T03:16:53.537Z,85.14
2023-04-27T03:17:53.469Z,85.24
2023-04-27T03:18:53.374Z,85.34
2023-04-27T03:19:53.385Z,85.34
2023-04-27T03:20:53.372Z,84.93
2023-04-27T03:21:53.319Z,84.83
2023-04-27T03:22:53.361Z,85.14
2023-04-27T03:23:53.295Z,85.03
2023-04-27T03:24:53.347Z,84.83
2023-04-27T03:25:53.267Z,84.62
2023-04-27T03:26:53.292Z,84.62
2023-04-27T03:27:53.253Z,84.72
2023-04-27T03:28:53.256Z,84.83
2023-04-27T03:29:53.247Z,84.83
2023-04-27T03:30:53.222Z,84.83
2023-04-27T03:31:53.253Z,84.62
2023-04-27T03:32:53.225Z,84.72
2023-04-27T03:33:53.161Z,84.83
2023-04-27T03:34:53.199Z,84.62
2023-04-27T03:35:53.126Z,84.31
2023-04-27T03:36:53.150Z,84.21
2023-04-27T03:37:53.147Z,84.42
2023-04-27T03:38:53.124Z,84.56
2023-04-27T03:39:53.114Z,84.35
2023-04-27T03:40:53.102Z,84.29
2023-04-27T03:41:53.098Z,84.91
2023-04-27T03:42:53.079Z,85.73
2023-04-27T03:43:53.060Z,86.15
2023-04-27T03:44:53.041Z,86.35
2023-04-27T03:45:53.116Z,86.76
2023-04-27T03:46:53.024Z,86.45
2023-04-27T03:47:53.065Z,85.94
2023-04-27T03:48:52.990Z,85.63
2023-04-27T03:49:52.986Z,85.94
2023-04-27T03:50:52.982Z,85.94
2023-04-27T03:51:52.925Z,85.42
2023-04-27T03:52:52.961Z,85.94
2023-04-27T03:53:52.922Z,85.46
2023-04-27T03:54:52.946Z,85.46
2023-04-27T03:55:52.947Z,85.87
2023-04-27T03:56:52.903Z,86.18
2023-04-27T03:57:52.877Z,85.57
2023-04-27T03:58:52.867Z,85.77
2023-04-27T03:59:52.857Z,85.57
2023-04-27T04:00:52.856Z,86.08
2023-04-27T04:01:52.805Z,86.29
2023-04-27T04:02:53.194Z,85.87
2023-04-27T04:03:52.903Z,85.97
2023-04-27T04:04:52.929Z,85.67
2023-04-27T04:05:52.786Z,85.77
2023-04-27T04:06:52.755Z,85.87
2023-04-27T04:07:52.744Z,85.46
2023-04-27T04:08:52.757Z,84.94
2023-04-27T04:09:52.698Z,85.46
2023-04-27T04:10:52.753Z,85.46
2023-04-27T04:11:52.685Z,85.46
2023-04-27T04:12:52.688Z,84.94
2023-04-27T04:13:52.648Z,84.64
2023-04-27T04:14:52.842Z,84.64
2023-04-27T04:15:52.717Z,85.05
2023-04-27T04:16:52.652Z,85.15
2023-04-27T04:17:52.649Z,85.67
2023-04-27T04:18:52.628Z,86.08
2023-04-27T04:19:52.610Z,85.67
2023-04-27T04:20:52.585Z,85.46
2023-04-27T04:21:52.537Z,85.05
2023-04-27T04:22:52.613Z,85.36
2023-04-27T04:23:52.526Z,85.67
2023-04-27T04:24:52.554Z,85.77
2023-04-27T04:25:52.484Z,85.46
2023-04-27T04:26:52.512Z,85.67
2023-04-27T04:27:52.479Z,85.05
2023-04-27T04:28:52.471Z,85.05
2023-04-27T04:29:52.474Z,85.01
2023-04-27T04:30:52.486Z,85.22
2023-04-27T04:31:52.477Z,85.42
2023-04-27T04:32:52.459Z,85.31
2023-04-27T04:33:52.403Z,84.49
2023-04-27T04:34:52.417Z,83.77
2023-04-27T04:35:52.380Z,83.98
2023-04-27T04:36:52.396Z,84.39
2023-04-27T04:37:52.358Z,84.29
2023-04-27T04:38:52.431Z,84.49
2023-04-27T04:39:52.337Z,84.59
2023-04-27T04:40:52.319Z,84.70
2023-04-27T04:41:52.307Z,84.49
2023-04-27T04:42:52.331Z,84.14
2023-04-27T04:43:52.269Z,83.36
2023-04-27T04:44:52.286Z,83.36
2023-04-27T04:45:52.232Z,83.98
2023-04-27T04:46:52.276Z,84.49
2023-04-27T04:47:52.264Z,84.59
2023-04-27T04:48:54.587Z,84.49
2023-04-27T04:49:52.217Z,84.19
2023-04-27T04:50:52.203Z,84.39
2023-04-27T04:51:52.165Z,84.84
2023-04-27T04:52:52.178Z,85.15
2023-04-27T04:53:52.150Z,85.25
2023-04-27T04:54:52.162Z,84.94
2023-04-27T04:55:52.129Z,85.15
2023-04-27T04:56:52.117Z,85.05
2023-04-27T04:57:52.099Z,85.57
2023-04-27T04:58:52.107Z,85.36
2023-04-27T04:59:52.049Z,85.77
2023-04-27T05:00:52.069Z,84.84
2023-04-27T05:01:52.050Z,84.74
2023-04-27T05:02:52.118Z,84.84
2023-04-27T05:03:52.273Z,85.15
2023-04-27T05:04:52.237Z,85.46
2023-04-27T05:05:51.999Z,85.87
2023-04-27T05:06:51.989Z,85.46
2023-04-27T05:07:51.947Z,85.36
2023-04-27T05:08:51.952Z,85.42
2023-04-27T05:09:51.952Z,85.42
2023-04-27T05:10:51.936Z,85.01
2023-04-27T05:11:51.927Z,85.01
2023-04-27T05:12:51.888Z,84.59
2023-04-27T05:13:51.899Z,84.59
2023-04-27T05:14:51.866Z,84.49
2023-04-27T05:15:51.930Z,85.01
2023-04-27T05:16:51.819Z,84.39
2023-04-27T05:17:51.883Z,84.08
2023-04-27T05:18:51.803Z,84.49
2023-04-27T05:19:51.834Z,84.19
2023-04-27T05:20:51.803Z,84.39
2023-04-27T05:21:51.796Z,84.39
2023-04-27T05:22:51.790Z,83.87
2023-04-27T05:23:51.773Z,83.36
2023-04-27T05:24:51.726Z,84.08
2023-04-27T05:25:51.751Z,83.87
2023-04-27T05:26:51.719Z,83.56
2023-04-27T05:27:51.738Z,84.08
2023-04-27T05:28:51.687Z,84.59
2023-04-27T05:29:51.707Z,84.70
2023-04-27T05:30:51.650Z,84.59
2023-04-27T05:31:51.705Z,84.39
2023-04-27T05:32:51.668Z,84.39
2023-04-27T05:33:51.644Z,84.14
2023-04-27T05:34:51.639Z,84.66
2023-04-27T05:35:51.615Z,84.56
2023-04-27T05:36:51.580Z,84.56
2023-04-27T05:37:51.619Z,84.56
2023-04-27T05:38:51.561Z,84.62
2023-04-27T05:39:51.584Z,84.21
2023-04-27T05:40:51.525Z,83.28
2023-04-27T05:41:51.552Z,83.07
2023-04-27T05:42:51.498Z,83.18
2023-04-27T05:43:51.524Z,83.28
2023-04-27T05:44:51.490Z,82.87
2023-04-27T05:45:51.517Z,83.18
2023-04-27T05:46:51.454Z,83.59
2023-04-27T05:47:51.509Z,83.49
2023-04-27T05:48:51.417Z,83.39
2023-04-27T05:49:51.461Z,83.90
2023-04-27T05:50:51.422Z,84.11
2023-04-27T05:51:51.416Z,84.11
2023-04-27T05:52:51.383Z,83.70
2023-04-27T05:53:51.373Z,82.67
2023-04-27T05:54:51.389Z,83.80
2023-04-27T05:55:51.359Z,84.17
2023-04-27T05:56:51.327Z,83.65
2023-04-27T05:57:57.322Z,83.55
2023-04-27T05:58:51.293Z,83.18
2023-04-27T05:59:51.332Z,83.45
2023-04-27T06:00:51.272Z,83.07
2023-04-27T06:01:51.276Z,82.46
2023-04-27T06:02:51.380Z,83.07
2023-04-27T06:03:51.335Z,83.49
2023-04-27T06:04:51.281Z,83.28
2023-04-27T06:05:51.261Z,82.05
2023-04-27T06:06:51.200Z,81.53
2023-04-27T06:07:51.206Z,81.70
2023-04-27T06:08:51.176Z,82.83
2023-04-27T06:09:51.178Z,83.76
2023-04-27T06:10:51.125Z,84.17
2023-04-27T06:11:51.184Z,83.45
2023-04-27T06:12:51.107Z,82.90
2023-04-27T06:13:51.148Z,83.00
2023-04-27T06:14:51.083Z,83.11
2023-04-27T06:15:51.168Z,82.39
2023-04-27T06:16:51.080Z,81.62
2023-04-27T06:17:51.098Z,81.62
2023-04-27T06:18:51.029Z,82.24
2023-04-27T06:19:51.048Z,81.21
2023-04-27T06:20:51.048Z,81.25
2023-04-27T06:21:51.047Z,80.22
2023-04-27T06:22:51.017Z,80.12
2023-04-27T06:23:50.987Z,80.53
2023-04-27T06:24:50.977Z,80.94
2023-04-27T06:25:51.451Z,81.25
2023-04-27T06:26:50.955Z,81.67
2023-04-27T06:27:50.964Z,81.76
2023-04-27T06:28:50.906Z,82.24
2023-04-27T06:29:50.952Z,82.76
2023-04-27T06:30:50.906Z,81.93
2023-04-27T06:31:50.974Z,81.73
2023-04-27T06:32:50.867Z,82.76
2023-04-27T06:33:50.857Z,82.62
2023-04-27T06:34:50.833Z,81.90
2023-04-27T06:35:50.872Z,82.31
2023-04-27T06:36:50.810Z,82.71
2023-04-27T06:37:50.820Z,82.31
2023-04-27T06:38:50.819Z,81.48
2023-04-27T06:39:50.816Z,80.87
2023-04-27T06:40:50.790Z,81.18
2023-04-27T06:41:50.769Z,81.55
2023-04-27T06:42:50.756Z,81.34
2023-04-27T06:43:50.733Z,81.45
2023-04-27T06:44:50.708Z,81.45
2023-04-27T06:45:50.738Z,80.93
2023-04-27T06:46:50.705Z,80.83
2023-04-27T06:47:50.687Z,81.65
2023-04-27T06:48:50.656Z,81.71
2023-04-27T06:49:50.650Z,81.10
2023-04-27T06:50:50.665Z,81.20
2023-04-27T06:51:50.631Z,80.58
2023-04-27T06:52:50.609Z,80.90
2023-04-27T06:53:50.645Z,80.18
2023-04-27T06:54:50.574Z,80.18
2023-04-27T06:55:50.587Z,80.49
2023-04-27T06:56:50.567Z,79.66
2023-04-27T06:57:50.578Z,79.97
2023-04-27T06:58:50.521Z,79.46
2023-04-27T06:59:50.517Z,80.18
2023-04-27T07:00:50.487Z,79.56
2023-04-27T07:01:50.513Z,79.36
2023-04-27T07:02:50.708Z,79.25
2023-04-27T07:03:50.643Z,79.01
2023-04-27T07:04:50.495Z,79.63
2023-04-27T07:05:50.484Z,79.52
2023-04-27T07:06:50.425Z,79.42
2023-04-27T07:07:50.418Z,78.81
2023-04-27T07:08:50.373Z,80.00
2023-04-27T07:09:50.396Z,78.36
2023-04-27T07:10:50.368Z,77.26
2023-04-27T07:11:50.373Z,78.09
2023-04-27T07:12:50.348Z,78.19
2023-04-27T07:13:50.367Z,79.18
2023-04-27T07:14:50.303Z,80.21
2023-04-27T07:15:50.359Z,77.84
2023-04-27T07:16:50.290Z,78.67
2023-04-27T07:17:50.401Z,77.84
2023-04-27T07:18:50.324Z,76.82
2023-04-27T07:19:50.275Z,77.64
2023-04-27T07:20:50.244Z,76.20
2023-04-27T07:21:50.253Z,76.20
2023-04-27T07:22:50.234Z,76.00
2023-04-27T07:23:50.240Z,76.62
2023-04-27T07:24:50.201Z,77.95
2023-04-27T07:25:50.189Z,79.04
2023-04-27T07:26:50.185Z,78.22
2023-04-27T07:27:50.152Z,77.98
2023-04-27T07:28:50.114Z,76.95
2023-04-27T07:29:50.162Z,74.77
2023-04-27T07:30:50.117Z,75.48
2023-04-27T07:31:52.199Z,76.17
2023-04-27T07:32:50.108Z,75.01
2023-04-27T07:33:50.087Z,74.80
2023-04-27T07:34:54.197Z,74.46
2023-04-27T07:35:50.055Z,72.21
2023-04-27T07:36:50.011Z,71.39
2023-04-27T07:37:50.103Z,71.80
2023-04-27T07:38:50.082Z,72.11
2023-04-27T07:39:50.053Z,72.62
2023-04-27T07:40:49.974Z,72.11
2023-04-27T07:41:49.992Z,71.29
2023-04-27T07:42:49.967Z,72.34
2023-04-27T07:43:49.947Z,73.23
2023-04-27T07:44:49.916Z,74.46
2023-04-27T07:45:49.965Z,71.29
2023-04-27T07:46:49.880Z,72.52
2023-04-27T07:47:49.977Z,71.59
2023-04-27T07:48:49.856Z,71.59
2023-04-27T07:49:49.859Z,71.66
2023-04-27T07:50:49.835Z,71.46
2023-04-27T07:51:49.837Z,69.31
2023-04-27T07:52:49.815Z,70.43
2023-04-27T07:53:49.832Z,70.64
2023-04-27T07:54:49.778Z,72.48
2023-04-27T07:55:49.783Z,72.55
2023-04-27T07:56:49.753Z,69.69
2023-04-27T07:57:49.765Z,69.38
2023-04-27T07:58:49.740Z,70.27
2023-04-27T07:59:49.752Z,70.68
2023-04-27T08:00:49.699Z,69.86
2023-04-27T08:01:49.723Z,69.86
2023-04-27T08:02:49.924Z,69.62
2023-04-27T08:03:49.996Z,69.01
2023-04-27T08:04:50.021Z,69.79
2023-04-27T08:05:49.956Z,70.07
2023-04-27T08:06:49.738Z,69.32
2023-04-27T08:07:50.081Z,68.27
2023-04-27T08:08:49.624Z,68.37
2023-04-27T08:09:49.629Z,68.75
2023-04-27T08:10:49.577Z,69.02
2023-04-27T08:11:49.579Z,68.51
2023-04-27T08:12:49.545Z,69.73
2023-04-27T08:13:49.561Z,67.16
2023-04-27T08:14:49.527Z,68.48
2023-04-27T08:15:49.486Z,67.53
2023-04-27T08:16:49.535Z,65.63
2023-04-27T08:17:49.490Z,66.55
2023-04-27T08:18:49.496Z,66.04
2023-04-27T08:19:49.436Z,67.19
2023-04-27T08:20:49.473Z,67.02
2023-04-27T08:21:49.433Z,66.30
2023-04-27T08:22:49.409Z,66.10
2023-04-27T08:23:49.380Z,65.80
2023-04-27T08:24:49.435Z,65.39
2023-04-27T08:25:49.365Z,66.47
2023-04-27T08:26:49.356Z,65.36
2023-04-27T08:27:49.350Z,65.66
2023-04-27T08:28:49.360Z,66.88
2023-04-27T08:29:49.294Z,65.43
2023-04-27T08:30:49.346Z,66.82
2023-04-27T08:31:49.318Z,66.28
2023-04-27T08:32:49.327Z,66.04
2023-04-27T08:33:49.256Z,66.75
2023-04-27T08:34:49.292Z,67.87
2023-04-27T08:35:49.223Z,67.57
2023-04-27T08:36:49.246Z,65.46
2023-04-27T08:37:49.210Z,65.73
2023-04-27T08:38:49.203Z,67.05
2023-04-27T08:39:49.213Z,66.04
2023-04-27T08:40:49.202Z,66.21
2023-04-27T08:41:49.174Z,67.63
2023-04-27T08:42:49.183Z,66.61
2023-04-27T08:43:49.126Z,66.08
2023-04-27T08:44:49.179Z,66.72
2023-04-27T08:45:49.112Z,65.53
2023-04-27T08:46:49.148Z,67.16
2023-04-27T08:47:49.120Z,65.16
2023-04-27T08:48:49.107Z,64.81
2023-04-27T08:49:49.053Z,64.41
2023-04-27T08:50:49.083Z,65.70
2023-04-27T08:51:49.029Z,66.52
2023-04-27T08:52:49.032Z,65.70
2023-04-27T08:53:49.029Z,64.69
2023-04-27T08:54:49.027Z,64.38
2023-04-27T08:55:48.956Z,65.67
2023-04-27T08:56:48.994Z,65.06
2023-04-27T08:57:48.939Z,67.67
2023-04-27T08:58:48.991Z,65.64
2023-04-27T08:59:48.907Z,65.51
2023-04-27T09:00:50.177Z,64.39
2023-04-27T09:01:49.404Z,62.36
2023-04-27T09:02:49.081Z,61.68
2023-04-27T09:03:49.295Z,63.00
2023-04-27T09:04:49.026Z,64.90
2023-04-27T09:06:03.051Z,63.48
2023-04-27T09:06:48.890Z,63.48
2023-04-27T09:07:48.826Z,62.63
2023-04-27T09:08:48.853Z,62.02
2023-04-27T09:09:48.805Z,61.79
2023-04-27T09:10:48.811Z,60.98
2023-04-27T09:11:48.756Z,60.55
2023-04-27T09:12:48.779Z,61.87
2023-04-27T09:13:48.744Z,63.39
2023-04-27T09:14:48.778Z,61.05
2023-04-27T09:15:48.931Z,59.41
2023-04-27T09:16:48.786Z,62.65
2023-04-27T09:17:48.734Z,60.31
2023-04-27T09:18:48.687Z,60.93
2023-04-27T09:19:48.684Z,59.81
2023-04-27T09:20:48.715Z,61.83
2023-04-27T09:21:48.656Z,61.71
2023-04-27T09:22:48.624Z,60.89
2023-04-27T09:23:48.630Z,61.40
2023-04-27T09:24:48.600Z,59.91
2023-04-27T09:25:48.604Z,59.03
2023-04-27T09:26:48.566Z,62.65
2023-04-27T09:27:48.584Z,58.42
2023-04-27T09:28:48.541Z,57.91
2023-04-27T09:29:48.583Z,62.37
2023-04-27T09:30:48.537Z,59.43
2023-04-27T09:31:48.561Z,60.01
2023-04-27T09:32:48.541Z,60.08
2023-04-27T09:33:48.516Z,59.07
2023-04-27T09:34:48.463Z,59.78
2023-04-27T09:35:48.499Z,58.06
2023-04-27T09:36:48.428Z,58.47
2023-04-27T09:37:48.454Z,60.06
2023-04-27T09:38:48.443Z,56.61
2023-04-27T09:39:48.415Z,60.16
2023-04-27T09:40:48.389Z,59.14
2023-04-27T09:41:48.380Z,59.25
2023-04-27T09:42:48.348Z,56.28
2023-04-27T09:43:48.381Z,56.56
2023-04-27T09:44:48.428Z,55.82
2023-04-27T09:45:48.387Z,57.52
2023-04-27T09:46:48.290Z,57.29
2023-04-27T09:47:48.363Z,55.74
2023-04-27T09:48:48.281Z,55.87
2023-04-27T09:49:48.274Z,56.81
2023-04-27T09:50:48.270Z,55.40
2023-04-27T09:51:48.246Z,58.73
2023-04-27T09:52:48.252Z,56.33
2023-04-27T09:53:48.239Z,56.94
2023-04-27T09:54:48.245Z,54.99
2023-04-27T09:55:49.507Z,54.38
2023-04-27T09:56:48.156Z,54.38
2023-04-27T09:57:48.183Z,55.62
2023-04-27T09:58:48.154Z,55.85
2023-04-27T09:59:48.151Z,56.56
2023-04-27T10:00:48.142Z,56.36
2023-04-27T10:01:48.188Z,56.69
2023-04-27T10:02:53.298Z,57.07
2023-04-27T10:03:48.160Z,56.33
2023-04-27T10:04:48.086Z,53.78
2023-04-27T10:05:48.059Z,54.96
2023-04-27T10:06:48.040Z,53.96
2023-04-27T10:07:48.087Z,53.42
2023-04-27T10:08:47.994Z,54.71
2023-04-27T10:09:48.028Z,55.49
2023-04-27T10:10:48.016Z,54.38
2023-04-27T10:11:47.984Z,53.93
2023-04-27T10:12:47.959Z,55.04
2023-04-27T10:13:47.969Z,56.18
2023-04-27T10:14:48.035Z,54.08
2023-04-27T10:15:47.957Z,54.99
2023-04-27T10:16:47.974Z,55.47
2023-04-27T10:17:47.971Z,55.34
2023-04-27T10:18:47.875Z,50.49
2023-04-27T10:19:47.906Z,50.29
2023-04-27T10:20:47.839Z,50.59
2023-04-27T10:21:47.858Z,51.30
2023-04-27T10:22:47.816Z,50.29
2023-04-27T10:23:47.860Z,50.80
2023-04-27T10:24:47.780Z,53.93
2023-04-27T10:25:47.820Z,54.61
2023-04-27T10:26:47.771Z,54.48
2023-04-27T10:27:47.810Z,55.06
2023-04-27T10:28:47.745Z,51.64
2023-04-27T10:29:47.789Z,53.85
2023-04-27T10:30:47.731Z,53.27
2023-04-27T10:31:47.725Z,54.83
2023-04-27T10:32:47.706Z,53.55
2023-04-27T10:33:47.735Z,53.14
2023-04-27T10:34:47.660Z,53.75
2023-04-27T10:35:47.676Z,53.58
2023-04-27T10:36:47.667Z,52.16
2023-04-27T10:37:47.663Z,52.67
2023-04-27T10:38:47.638Z,52.23
2023-04-27T10:39:49.621Z,51.53
2023-04-27T10:40:47.597Z,51.32
2023-04-27T10:41:47.628Z,53.72
2023-04-27T10:42:47.577Z,54.23
2023-04-27T10:43:47.568Z,54.25
2023-04-27T10:44:47.531Z,54.69
2023-04-27T10:45:47.582Z,54.28
2023-04-27T10:46:47.524Z,53.19
2023-04-27T10:47:47.551Z,53.50
2023-04-27T10:48:47.517Z,54.11
2023-04-27T10:49:47.528Z,51.28
2023-04-27T10:50:47.449Z,52.89
2023-04-27T10:51:47.457Z,52.89
2023-04-27T10:52:47.419Z,52.11
2023-04-27T10:53:47.453Z,52.92
2023-04-27T10:54:47.433Z,54.64
2023-04-27T10:55:47.415Z,54.84
2023-04-27T10:56:47.402Z,56.73
2023-04-27T10:57:47.380Z,54.11
2023-04-27T10:58:49.232Z,54.61
2023-04-27T10:59:47.359Z,56.00
2023-04-27T11:00:47.403Z,54.18
2023-04-27T11:01:47.379Z,53.78
2023-04-27T11:02:47.330Z,55.57
2023-04-27T11:03:47.473Z,53.55
2023-04-27T11:04:47.315Z,52.54
2023-04-27T11:05:47.314Z,54.63
2023-04-27T11:06:47.299Z,56.45
2023-04-27T11:07:47.256Z,52.92
2023-04-27T11:08:47.232Z,54.74
2023-04-27T11:09:47.268Z,52.01
2023-04-27T11:10:47.274Z,52.11
2023-04-27T11:11:47.203Z,51.23
2023-04-27T11:12:47.167Z,54.03
2023-04-27T11:13:47.162Z,52.11
2023-04-27T11:14:47.135Z,50.80
2023-04-27T11:15:47.194Z,50.70
2023-04-27T11:16:47.214Z,53.12
2023-04-27T11:17:47.182Z,54.03
2023-04-27T11:18:47.107Z,53.52
2023-04-27T11:19:47.099Z,52.19
2023-04-27T11:20:47.066Z,53.27
2023-04-27T11:21:47.074Z,53.58
2023-04-27T11:22:47.036Z,52.16
2023-04-27T11:23:47.049Z,52.56
2023-04-27T11:24:47.008Z,50.12
2023-04-27T11:25:47.037Z,51.73
2023-04-27T11:26:46.983Z,52.14
2023-04-27T11:27:47.005Z,55.57
2023-04-27T11:28:46.963Z,54.08
2023-04-27T11:29:47.077Z,50.98
2023-04-27T11:30:46.957Z,49.89
2023-04-27T11:31:46.962Z,53.02
2023-04-27T11:32:46.952Z,51.00
2023-04-27T11:33:46.930Z,52.39
2023-04-27T11:34:46.894Z,54.71
2023-04-27T11:35:46.944Z,55.90
2023-04-27T11:36:46.844Z,54.38
2023-04-27T11:37:46.854Z,51.07
2023-04-27T11:38:46.874Z,51.38
2023-04-27T11:39:46.865Z,50.47
2023-04-27T11:40:46.812Z,50.75
2023-04-27T11:41:46.821Z,50.24
2023-04-27T11:42:46.770Z,50.87
2023-04-27T11:43:46.775Z,52.06
2023-04-27T11:44:46.769Z,51.35
2023-04-27T11:45:46.749Z,53.05
2023-04-27T11:46:46.741Z,52.04
2023-04-27T11:47:46.770Z,49.01
2023-04-27T11:48:46.756Z,49.31
2023-04-27T11:49:46.701Z,48.91
2023-04-27T11:50:46.659Z,49.01
2023-04-27T11:51:46.676Z,49.21
2023-04-27T11:52:46.652Z,49.41
2023-04-27T11:53:46.664Z,49.21
2023-04-27T11:54:46.622Z,48.71
2023-04-27T11:55:46.621Z,50.40
2023-04-27T11:56:46.632Z,48.89
2023-04-27T11:57:46.634Z,48.99
2023-04-27T11:58:46.644Z,49.19
2023-04-27T11:59:46.557Z,49.72
2023-04-27T12:00:46.560Z,51.81
2023-04-27T12:01:46.603Z,50.02
2023-04-27T12:02:46.609Z,49.92
2023-04-27T12:03:46.657Z,47.50
2023-04-27T12:04:46.761Z,48.50
2023-04-27T12:05:46.548Z,49.82
2023-04-27T12:06:46.432Z,50.22
2023-04-27T12:07:46.464Z,52.14
2023-04-27T12:08:46.416Z,50.60
2023-04-27T12:09:46.458Z,48.49
2023-04-27T12:10:46.398Z,49.49
2023-04-27T12:11:46.457Z,49.77
2023-04-27T12:12:46.371Z,49.97
2023-04-27T12:13:46.380Z,50.78
2023-04-27T12:14:46.363Z,50.15
2023-04-27T12:15:46.386Z,51.46
2023-04-27T12:16:46.411Z,49.47
2023-04-27T12:17:46.408Z,49.27
2023-04-27T12:18:46.308Z,47.88
2023-04-27T12:19:46.310Z,48.08
2023-04-27T12:20:46.282Z,49.59
2023-04-27T12:21:46.322Z,48.99
2023-04-27T12:22:46.241Z,48.58
2023-04-27T12:23:46.278Z,48.18
2023-04-27T12:24:46.261Z,47.96
2023-04-27T12:25:46.223Z,48.26
2023-04-27T12:26:46.205Z,47.25
2023-04-27T12:27:46.203Z,47.55
2023-04-27T12:28:46.153Z,46.57
2023-04-27T12:29:46.221Z,48.56
2023-04-27T12:30:46.207Z,47.05
2023-04-27T12:31:46.157Z,49.57
2023-04-27T12:32:46.165Z,49.77
2023-04-27T12:33:46.125Z,48.54
2023-04-27T12:34:46.123Z,48.34
2023-04-27T12:35:46.120Z,46.50
2023-04-27T12:36:46.083Z,46.60
2023-04-27T12:37:46.066Z,47.61
2023-04-27T12:38:46.032Z,47.71
2023-04-27T12:39:46.050Z,47.91
2023-04-27T12:40:46.042Z,46.50
2023-04-27T12:41:46.014Z,47.20
2023-04-27T12:42:45.989Z,48.52
2023-04-27T12:43:46.013Z,47.71
2023-04-27T12:44:45.980Z,49.65
2023-04-27T12:45:45.964Z,49.35
2023-04-27T12:46:45.969Z,48.86
2023-04-27T12:48:00.988Z,47.90
2023-04-27T12:48:45.931Z,49.01
2023-04-27T12:49:45.938Z,48.63
2023-04-27T12:50:45.889Z,51.05
2023-04-27T12:51:45.877Z,52.84
2023-04-27T12:52:45.870Z,52.04